createdAt,value
2024-05-09T12:07:30.413Z,32.99
2024-05-09T12:08:31.294Z,31.38
2024-05-09T12:09:31.293Z,31.48
2024-05-09T12:10:34.145Z,31.77
2024-05-09T12:11:31.302Z,31.26
2024-05-09T12:12:31.929Z,31.44
2024-05-09T12:13:31.273Z,30.94
2024-05-09T12:14:31.235Z,31.02
2024-05-09T12:15:31.264Z,31.11
2024-05-09T12:16:31.703Z,30.51
2024-05-09T12:17:31.297Z,30.29
2024-05-09T12:18:31.263Z,29.00
2024-05-09T12:19:31.211Z,29.18
2024-05-09T12:20:36.820Z,29.80
2024-05-09T12:21:31.248Z,29.99
2024-05-09T12:22:31.175Z,29.99
2024-05-09T12:23:31.133Z,30.10
2024-05-09T12:24:31.192Z,30.10
2024-05-09T12:25:31.146Z,30.49
2024-05-09T12:26:31.163Z,30.81
2024-05-09T12:27:31.187Z,31.43
2024-05-09T12:28:31.209Z,31.71
2024-05-09T12:29:31.100Z,31.21
2024-05-09T12:30:36.758Z,30.91
2024-05-09T12:31:31.213Z,30.91
2024-05-09T12:32:31.204Z,31.31
2024-05-09T12:33:31.189Z,31.73
2024-05-09T12:34:31.098Z,31.43
2024-05-09T12:35:31.051Z,32.23
2024-05-09T12:36:31.108Z,31.71
2024-05-09T12:37:31.049Z,31.11
2024-05-09T12:38:31.023Z,30.73
2024-05-09T12:39:31.124Z,31.93
2024-05-09T12:40:36.016Z,31.02
2024-05-09T12:41:31.022Z,31.43
2024-05-09T12:42:33.276Z,31.04
2024-05-09T12:43:31.095Z,32.04
2024-05-09T12:44:30.949Z,31.65
2024-05-09T12:45:31.135Z,31.65
2024-05-09T12:46:30.974Z,31.76
2024-05-09T12:47:31.097Z,32.34
2024-05-09T12:48:31.156Z,31.64
2024-05-09T12:49:31.034Z,31.64
2024-05-09T12:50:33.369Z,30.82
2024-05-09T12:51:30.960Z,31.94
2024-05-09T12:52:30.892Z,32.32
2024-05-09T12:53:30.890Z,31.73
2024-05-09T12:54:30.894Z,31.34
2024-05-09T12:55:37.246Z,31.74
2024-05-09T12:56:30.839Z,32.24
2024-05-09T12:57:30.892Z,32.82
2024-05-09T12:58:30.881Z,31.91
2024-05-09T12:59:30.814Z,31.61
2024-05-09T13:00:33.972Z,31.70
2024-05-09T13:01:30.925Z,31.49
2024-05-09T13:02:30.886Z,30.10
2024-05-09T13:03:31.118Z,30.69
2024-05-09T13:04:30.983Z,30.68
2024-05-09T13:05:31.004Z,31.08
2024-05-09T13:06:30.796Z,30.46
2024-05-09T13:07:30.763Z,30.75
2024-05-09T13:08:30.754Z,30.25
2024-05-09T13:09:30.752Z,30.04
2024-05-09T13:10:32.872Z,29.93
2024-05-09T13:11:30.800Z,29.72
2024-05-09T13:12:30.739Z,29.01
2024-05-09T13:13:30.680Z,29.51
2024-05-09T13:14:30.666Z,28.81
2024-05-09T13:15:31.270Z,28.53
2024-05-09T13:16:30.711Z,29.43
2024-05-09T13:17:30.832Z,29.64
2024-05-09T13:18:30.726Z,30.32
2024-05-09T13:19:30.683Z,29.63
2024-05-09T13:20:33.795Z,29.51
2024-05-09T13:21:30.645Z,29.31
2024-05-09T13:22:30.600Z,28.91
2024-05-09T13:23:30.608Z,28.91
2024-05-09T13:24:30.603Z,28.31
2024-05-09T13:25:30.609Z,28.73
2024-05-09T13:26:30.559Z,29.24
2024-05-09T13:27:30.599Z,29.34
2024-05-09T13:28:30.610Z,29.05
2024-05-09T13:29:30.546Z,29.47
2024-05-09T13:30:38.854Z,29.68
2024-05-09T13:31:30.665Z,29.99
2024-05-09T13:32:30.602Z,30.91
2024-05-09T13:33:30.666Z,30.69
2024-05-09T13:34:30.544Z,30.69
2024-05-09T13:35:30.495Z,30.10
2024-05-09T13:36:30.507Z,30.29
2024-05-09T13:37:30.472Z,30.60
2024-05-09T13:38:30.457Z,30.69
2024-05-09T13:39:30.475Z,30.79
2024-05-09T13:40:34.394Z,31.61
2024-05-09T13:41:30.449Z,30.81
2024-05-09T13:42:30.492Z,31.31
2024-05-09T13:43:29.630Z,31.78
2024-05-09T14:07:47.674Z,31.10
2024-05-09T14:08:48.639Z,30.60
2024-05-09T14:09:48.671Z,31.20
2024-05-09T14:10:48.898Z,31.29
2024-05-09T14:11:48.670Z,30.78
2024-05-09T14:12:48.693Z,31.78
2024-05-09T14:13:48.613Z,31.76
2024-05-09T14:14:48.580Z,31.16
2024-05-09T14:15:48.765Z,30.75
2024-05-09T14:16:48.730Z,30.25
2024-05-09T14:17:48.596Z,30.55
2024-05-09T14:18:48.642Z,30.35
2024-05-09T14:19:48.559Z,30.07
2024-05-09T14:20:48.541Z,31.26
2024-05-09T14:21:48.563Z,30.77
2024-05-09T14:22:48.517Z,31.05
2024-05-09T14:23:48.561Z,31.45
2024-05-09T14:24:48.593Z,31.04
2024-05-09T14:25:51.889Z,30.83
2024-05-09T14:26:54.536Z,30.83
2024-05-09T14:27:55.747Z,29.22
2024-05-09T14:28:54.490Z,29.74
2024-05-09T14:29:54.451Z,29.74
2024-05-09T14:30:48.497Z,29.84
2024-05-09T14:31:48.516Z,30.93
2024-05-09T14:32:48.564Z,30.93
2024-05-09T14:33:48.639Z,30.62
2024-05-09T14:34:48.643Z,29.22
2024-05-09T14:35:48.444Z,29.64
2024-05-09T14:36:48.435Z,30.12
2024-05-09T14:37:48.383Z,30.04
2024-05-09T14:38:48.370Z,30.44
2024-05-09T14:39:48.417Z,29.94
2024-05-09T14:40:48.521Z,29.94
2024-05-09T14:41:48.372Z,30.55
2024-05-09T14:42:55.032Z,30.74
2024-05-09T14:43:57.013Z,30.14
2024-05-09T14:44:54.322Z,30.52
2024-05-09T14:45:48.344Z,30.02
2024-05-09T14:46:55.328Z,29.33
2024-05-09T14:47:54.501Z,29.22
2024-05-09T14:48:48.453Z,30.21
2024-05-09T14:49:55.872Z,30.01
2024-05-09T14:50:48.253Z,29.31
2024-05-09T14:51:54.906Z,29.71
2024-05-09T14:52:55.913Z,29.52
2024-05-09T14:53:55.905Z,29.33
2024-05-09T14:55:00.212Z,30.41
2024-05-09T14:56:57.891Z,29.43
2024-05-09T14:59:23.507Z,29.54
2024-05-09T15:00:35.848Z,29.54
2024-05-09T15:01:24.553Z,30.02
2024-05-09T15:02:24.527Z,29.43
2024-05-09T15:03:32.544Z,29.22
2024-05-09T15:04:30.551Z,29.74
2024-05-09T15:05:30.697Z,28.74
2024-05-09T15:06:24.536Z,29.74
2024-05-09T15:07:24.469Z,29.74
2024-05-09T15:08:30.424Z,29.64
2024-05-09T15:09:30.960Z,29.55
2024-05-09T15:10:35.571Z,30.05
2024-05-09T15:11:24.391Z,29.95
2024-05-09T15:12:33.447Z,29.95
2024-05-09T15:14:16.421Z,29.95
2024-05-09T15:15:17.424Z,30.45
2024-05-09T15:16:17.468Z,30.15
2024-05-09T15:17:35.678Z,30.35
2024-05-09T15:18:36.869Z,30.35
2024-05-09T15:19:43.260Z,29.95
2024-05-09T15:20:37.699Z,30.33
2024-05-09T15:21:36.586Z,29.74
2024-05-09T15:22:42.551Z,30.54
2024-05-09T15:23:36.529Z,29.63
2024-05-09T15:24:36.547Z,30.12
2024-05-09T15:25:37.048Z,29.33
2024-05-09T15:26:36.572Z,29.24
2024-05-09T15:27:36.540Z,29.84
2024-05-09T15:28:36.470Z,29.34
2024-05-09T15:29:36.543Z,29.24
2024-05-09T15:30:37.065Z,29.54
2024-05-09T15:31:36.501Z,29.74
2024-05-09T15:32:36.540Z,29.54
2024-05-09T15:33:36.533Z,28.94
2024-05-09T15:35:15.735Z,29.22
2024-05-09T15:39:27.955Z,29.85
2024-05-09T16:24:08.469Z,31.65
2024-05-09T16:25:28.772Z,31.65
2024-05-09T16:26:29.752Z,31.45
2024-05-09T16:27:29.778Z,30.45
2024-05-09T16:28:29.792Z,30.95
2024-05-09T16:29:29.722Z,31.05
2024-05-09T16:30:34.904Z,30.95
2024-05-09T16:31:29.799Z,31.35
2024-05-09T16:32:29.792Z,31.75
2024-05-09T16:33:29.904Z,31.15
2024-05-09T16:34:29.746Z,31.05
2024-05-09T16:35:29.681Z,31.55
2024-05-09T16:36:29.744Z,31.37
2024-05-09T16:37:29.865Z,31.46
2024-05-09T16:38:29.637Z,31.68
2024-05-09T16:39:29.702Z,32.20
2024-05-09T16:40:36.872Z,32.59
2024-05-09T16:41:29.622Z,32.79
2024-05-09T16:42:29.662Z,32.70
2024-05-09T16:43:29.670Z,33.09
2024-05-09T16:44:30.600Z,32.50
2024-05-09T16:45:29.747Z,33.20
2024-05-09T16:46:29.567Z,32.79
2024-05-09T16:47:29.664Z,32.50
2024-05-09T16:48:29.627Z,33.00
2024-05-09T16:49:29.754Z,32.29
2024-05-09T16:50:33.251Z,32.79
2024-05-09T16:51:29.537Z,33.20
2024-05-09T16:52:29.495Z,33.29
2024-05-09T16:53:29.510Z,33.29
2024-05-09T16:54:29.626Z,33.20
2024-05-09T16:55:29.580Z,33.50
2024-05-09T16:56:29.464Z,33.50
2024-05-09T16:57:29.468Z,33.20
2024-05-09T16:58:29.538Z,33.09
2024-05-09T16:59:29.467Z,33.00
2024-05-09T17:00:38.365Z,33.21
2024-05-09T17:01:29.470Z,33.41
2024-05-09T17:02:29.568Z,33.51
2024-05-09T17:03:29.458Z,33.11
2024-05-09T17:04:29.593Z,33.61
2024-05-09T17:05:29.550Z,33.61
2024-05-09T17:06:29.401Z,33.81
2024-05-09T17:07:29.387Z,33.91
2024-05-09T17:08:29.390Z,33.71
2024-05-09T17:09:29.435Z,33.71
2024-05-09T17:10:33.222Z,33.53
2024-05-09T17:11:29.343Z,33.93
2024-05-09T17:12:29.309Z,34.12
2024-05-09T17:13:29.371Z,33.83
2024-05-09T17:14:29.324Z,34.03
2024-05-09T17:15:29.286Z,34.12
2024-05-09T17:16:29.403Z,34.33
2024-05-09T17:17:29.380Z,34.43
2024-05-09T17:18:29.305Z,34.23
2024-05-09T17:19:29.277Z,34.05
2024-05-09T17:20:33.877Z,34.34
2024-05-09T17:21:29.262Z,34.05
2024-05-09T17:22:29.224Z,34.05
2024-05-09T17:23:30.482Z,34.44
2024-05-09T17:24:30.194Z,34.64
2024-05-09T17:25:29.347Z,34.24
2024-05-09T17:26:29.193Z,34.05
2024-05-09T17:27:29.182Z,34.24
2024-05-09T17:28:29.198Z,34.05
2024-05-09T17:29:29.193Z,34.05
2024-05-09T17:30:35.014Z,33.74
2024-05-09T17:31:29.329Z,33.94
2024-05-09T17:32:29.195Z,33.74
2024-05-09T17:33:29.244Z,33.14
2024-05-09T17:34:29.281Z,33.34
2024-05-09T17:35:29.108Z,33.44
2024-05-09T17:36:29.088Z,33.44
2024-05-09T17:37:29.129Z,33.54
2024-05-09T17:38:29.080Z,33.54
2024-05-09T17:39:29.063Z,33.34
2024-05-09T17:40:33.741Z,33.94
2024-05-09T17:41:29.056Z,34.14
2024-05-09T17:42:29.027Z,34.34
2024-05-09T17:43:29.237Z,34.14
2024-05-09T17:44:29.015Z,34.05
2024-05-09T17:45:29.034Z,34.66
2024-05-09T17:46:29.089Z,34.56
2024-05-09T17:47:29.096Z,34.46
2024-05-09T17:48:29.073Z,34.66
2024-05-09T17:49:29.109Z,35.06
2024-05-09T17:50:35.419Z,34.78
2024-05-09T17:51:28.965Z,35.28
2024-05-09T17:52:28.966Z,35.08
2024-05-09T17:53:28.925Z,34.88
2024-05-09T17:54:28.909Z,35.38
2024-05-09T17:55:29.182Z,35.08
2024-05-09T17:56:28.901Z,35.18
2024-05-09T17:57:28.907Z,35.38
2024-05-09T17:58:28.943Z,35.98
2024-05-09T17:59:28.902Z,35.80
2024-05-09T18:00:37.062Z,35.80
2024-05-09T18:01:28.914Z,35.89
2024-05-09T18:02:28.979Z,36.10
2024-05-09T18:03:29.089Z,36.00
2024-05-09T18:04:31.100Z,36.30
2024-05-09T18:05:29.012Z,36.10
2024-05-09T18:06:28.796Z,36.52
2024-05-09T18:07:28.827Z,36.21
2024-05-09T18:08:28.778Z,36.61
2024-05-09T18:09:28.793Z,36.41
2024-05-09T18:10:35.486Z,36.82
2024-05-09T18:11:28.786Z,36.82
2024-05-09T18:12:28.748Z,36.82
2024-05-09T18:13:28.946Z,36.92
2024-05-09T18:14:28.739Z,36.82
2024-05-09T18:15:28.780Z,37.34
2024-05-09T18:16:28.772Z,37.24
2024-05-09T18:17:28.900Z,37.54
2024-05-09T18:18:28.751Z,37.84
2024-05-09T18:19:28.837Z,37.84
2024-05-09T18:20:37.752Z,37.54
2024-05-09T18:21:28.687Z,37.94
2024-05-09T18:22:28.694Z,38.14
2024-05-09T18:23:28.646Z,38.24
2024-05-09T18:24:28.703Z,38.66
2024-05-09T18:25:28.620Z,38.76
2024-05-09T18:26:28.602Z,38.76
2024-05-09T18:27:28.610Z,38.76
2024-05-09T18:28:28.816Z,38.86
2024-05-09T18:29:28.655Z,38.96
2024-05-09T18:30:34.375Z,39.47
2024-05-09T18:31:28.643Z,39.47
2024-05-09T18:32:28.791Z,39.66
2024-05-09T18:33:28.703Z,39.88
2024-05-09T18:34:28.710Z,39.69
2024-05-09T18:35:28.539Z,39.78
2024-05-09T18:36:28.513Z,39.88
2024-05-09T18:37:28.572Z,40.28
2024-05-09T18:38:28.489Z,40.39
2024-05-09T18:39:28.492Z,40.48
2024-05-09T18:40:34.054Z,40.59
2024-05-09T18:42:38.714Z,40.48
2024-05-09T18:43:44.999Z,40.59
2024-05-09T18:44:39.647Z,40.48
2024-05-09T18:45:39.998Z,40.69
2024-05-09T18:46:39.663Z,40.79
2024-05-09T18:47:39.642Z,40.81
2024-05-09T18:48:39.875Z,40.61
2024-05-09T18:49:39.642Z,41.01
2024-05-09T18:50:41.245Z,41.11
2024-05-09T18:51:39.637Z,41.61
2024-05-09T18:52:39.557Z,41.61
2024-05-09T18:53:40.820Z,41.61
2024-05-09T18:54:39.576Z,41.51
2024-05-09T18:55:39.539Z,41.63
2024-05-09T18:56:39.515Z,41.33
2024-05-09T18:57:39.538Z,41.53
2024-05-09T18:58:39.497Z,41.93
2024-05-09T18:59:39.478Z,41.73
2024-05-09T19:00:41.821Z,41.63
2024-05-09T19:01:39.553Z,42.13
2024-05-09T19:02:39.612Z,42.13
2024-05-09T19:03:39.742Z,42.13
2024-05-09T19:04:39.486Z,42.66
2024-05-09T19:05:40.374Z,42.46
2024-05-09T19:06:39.467Z,42.55
2024-05-09T19:07:39.416Z,42.86
2024-05-09T19:08:39.390Z,42.46
2024-05-09T19:09:39.425Z,42.66
2024-05-09T19:10:39.743Z,43.16
2024-05-09T19:11:39.449Z,43.26
2024-05-09T19:12:39.457Z,43.06
2024-05-09T19:13:39.388Z,42.86
2024-05-09T19:14:39.386Z,42.86
2024-05-09T19:15:40.092Z,42.78
2024-05-09T19:16:39.334Z,42.98
2024-05-09T19:17:39.447Z,43.28
2024-05-09T19:18:39.453Z,43.48
2024-05-09T19:19:39.375Z,43.59
2024-05-09T19:20:39.592Z,43.28
2024-05-09T19:21:42.081Z,43.18
2024-05-09T19:22:39.274Z,43.48
2024-05-09T19:23:46.828Z,43.51
2024-05-09T19:24:39.356Z,43.30
2024-05-09T19:25:39.253Z,43.30
2024-05-09T19:26:39.270Z,43.80
2024-05-09T19:27:39.257Z,43.71
2024-05-09T19:28:39.504Z,43.80
2024-05-09T19:29:39.211Z,43.71
2024-05-09T19:30:41.979Z,43.71
2024-05-09T19:31:39.194Z,44.11
2024-05-09T19:32:39.245Z,44.01
2024-05-09T19:33:39.243Z,44.02
2024-05-09T19:34:39.162Z,43.93
2024-05-09T19:35:39.210Z,44.33
2024-05-09T19:36:39.176Z,44.02
2024-05-09T19:37:40.903Z,44.23
2024-05-09T19:38:39.120Z,44.13
2024-05-09T19:39:39.112Z,44.53
2024-05-09T19:40:39.233Z,44.43
2024-05-09T19:41:39.113Z,44.63
2024-05-09T19:42:39.092Z,44.43
2024-05-09T19:43:39.113Z,44.63
2024-05-09T19:44:39.157Z,44.53
2024-05-09T19:45:39.130Z,44.73
2024-05-09T19:46:39.522Z,44.63
2024-05-09T19:47:39.069Z,44.85
2024-05-09T19:48:39.170Z,44.95
2024-05-09T19:49:39.071Z,45.03
2024-05-09T19:50:43.246Z,44.65
2024-05-09T19:51:39.181Z,45.16
2024-05-09T19:52:38.981Z,45.16
2024-05-09T19:53:38.966Z,45.16
2024-05-09T19:54:38.972Z,45.16
2024-05-09T19:55:39.009Z,45.36
2024-05-09T19:56:38.988Z,45.66
2024-05-09T19:57:38.981Z,45.46
2024-05-09T19:58:39.004Z,45.56
2024-05-09T19:59:38.941Z,45.56
2024-05-09T20:00:41.619Z,45.56
2024-05-09T20:01:39.137Z,45.36
2024-05-09T20:02:39.000Z,45.46
2024-05-09T20:03:39.072Z,45.36
2024-05-09T20:04:39.057Z,45.48
2024-05-09T20:05:39.626Z,45.58
2024-05-09T20:06:38.890Z,45.28
2024-05-09T20:07:38.854Z,45.28
2024-05-09T20:08:38.842Z,45.58
2024-05-09T20:09:38.944Z,45.48
2024-05-09T20:10:38.918Z,45.68
2024-05-09T20:11:38.902Z,45.48
2024-05-09T20:12:38.831Z,45.78
2024-05-09T20:13:38.828Z,45.68
2024-05-09T20:14:38.796Z,45.78
2024-05-09T20:15:39.023Z,45.89
2024-05-09T20:16:38.767Z,45.89
2024-05-09T20:17:38.795Z,45.90
2024-05-09T20:18:38.946Z,46.01
2024-05-09T20:19:38.899Z,46.01
2024-05-09T20:20:41.984Z,46.11
2024-05-09T20:21:38.756Z,46.11
2024-05-09T20:22:38.725Z,45.90
2024-05-09T20:23:38.720Z,46.01
2024-05-09T20:24:38.774Z,46.01
2024-05-09T20:25:38.673Z,46.01
2024-05-09T20:26:38.680Z,46.01
2024-05-09T20:27:38.717Z,45.90
2024-05-09T20:28:38.678Z,46.21
2024-05-09T20:29:38.639Z,46.01
2024-05-09T20:30:38.776Z,46.11
2024-05-09T20:31:38.620Z,46.11
2024-05-09T20:32:38.886Z,46.01
2024-05-09T20:33:38.802Z,46.11
2024-05-09T20:34:38.624Z,46.01
2024-05-09T20:35:38.600Z,46.11
2024-05-09T20:36:38.568Z,46.13
2024-05-09T20:37:38.622Z,46.01
2024-05-09T20:38:38.569Z,46.01
2024-05-09T20:39:38.589Z,46.13
2024-05-09T20:40:39.751Z,46.31
2024-05-09T20:41:38.529Z,46.41
2024-05-09T20:42:38.696Z,46.11
2024-05-09T20:43:38.532Z,46.31
2024-05-09T20:44:38.600Z,46.01
2024-05-09T20:45:39.223Z,46.51
2024-05-09T20:46:38.523Z,46.21
2024-05-09T20:47:38.756Z,46.21
2024-05-09T20:48:38.632Z,45.81
2024-05-09T20:49:38.516Z,45.90
2024-05-09T20:50:41.462Z,46.21
2024-05-09T20:51:38.687Z,46.11
2024-05-09T20:52:38.446Z,46.31
2024-05-09T20:53:38.425Z,46.01
2024-05-09T20:54:38.430Z,45.81
2024-05-09T20:55:38.378Z,46.01
2024-05-09T20:56:38.435Z,46.21
2024-05-09T20:57:38.438Z,46.21
2024-05-09T20:58:38.346Z,46.21
2024-05-09T20:59:38.388Z,46.11
2024-05-09T21:00:42.233Z,46.31
2024-05-09T21:01:38.401Z,46.01
2024-05-09T21:02:38.543Z,46.41
2024-05-09T21:03:38.573Z,46.41
2024-05-09T21:04:38.539Z,46.61
2024-05-09T21:05:38.808Z,46.51
2024-05-09T21:06:38.332Z,46.61
2024-05-09T21:07:38.294Z,46.31
2024-05-09T21:08:38.262Z,46.41
2024-05-09T21:09:38.278Z,46.51
2024-05-09T21:10:38.421Z,46.64
2024-05-09T21:11:38.246Z,46.73
2024-05-09T21:12:38.313Z,47.34
2024-05-09T21:13:38.283Z,46.92
2024-05-09T21:14:38.222Z,47.22
2024-05-09T21:15:38.354Z,46.84
2024-05-09T21:16:38.425Z,46.84
2024-05-09T21:17:38.337Z,47.04
2024-05-09T21:18:38.611Z,46.84
